createdAt,value
2022-08-10T00:01:21.589Z,20.17
2022-08-10T00:03:56.345Z,20.12
2022-08-10T00:06:27.968Z,20.08
2022-08-10T00:08:59.570Z,20.03
2022-08-10T00:11:31.063Z,19.99
2022-08-10T00:14:02.549Z,19.99
2022-08-10T00:16:34.044Z,19.97
2022-08-10T00:19:05.590Z,19.93
2022-08-10T00:21:37.224Z,19.91
2022-08-10T00:24:08.772Z,19.89
2022-08-10T00:28:01.954Z,19.87
2022-08-10T00:29:31.935Z,19.84
2022-08-10T00:32:03.595Z,19.80
2022-08-10T00:34:36.006Z,19.79
2022-08-10T00:37:07.631Z,19.78
2022-08-10T00:39:39.344Z,19.74
2022-08-10T00:42:12.554Z,19.73
2022-08-10T00:44:50.019Z,19.68
2022-08-10T00:47:36.054Z,19.65
2022-08-10T00:50:09.644Z,19.65
2022-08-10T00:52:41.598Z,19.60
2022-08-10T00:55:13.396Z,19.56
2022-08-10T00:57:46.274Z,19.52
2022-08-10T01:00:26.752Z,19.38
2022-08-10T01:02:58.275Z,19.26
2022-08-10T01:05:29.886Z,19.11
2022-08-10T01:08:08.259Z,19.02
2022-08-10T01:10:58.910Z,19.01
2022-08-10T01:13:56.682Z,19.06
2022-08-10T01:16:34.757Z,19.10
2022-08-10T01:19:25.875Z,19.01
2022-08-10T01:22:15.620Z,18.96
2022-08-10T01:24:47.114Z,18.95
2022-08-10T01:27:41.659Z,18.95
2022-08-10T01:30:14.366Z,18.93
2022-08-10T01:32:45.844Z,18.92
2022-08-10T01:35:26.638Z,18.92
2022-08-10T01:38:16.742Z,18.91
2022-08-10T01:41:02.195Z,18.86
2022-08-10T01:43:37.195Z,18.85
2022-08-10T01:46:09.398Z,18.84
2022-08-10T01:48:47.226Z,18.85
2022-08-10T01:51:21.811Z,18.81
2022-08-10T01:53:58.796Z,18.76
2022-08-10T01:56:32.898Z,18.74
2022-08-10T01:59:09.240Z,18.71
2022-08-10T02:01:47.946Z,18.70
2022-08-10T02:04:20.030Z,18.67
2022-08-10T02:06:52.293Z,18.65
2022-08-10T02:09:25.113Z,18.61
2022-08-10T02:12:07.066Z,18.61
2022-08-10T02:14:53.353Z,18.60
2022-08-10T02:17:57.874Z,18.55
2022-08-10T02:20:40.963Z,18.50
2022-08-10T02:23:22.362Z,18.47
2022-08-10T02:25:54.918Z,18.44
2022-08-10T02:28:30.876Z,18.40
2022-08-10T02:31:06.584Z,18.39
2022-08-10T02:33:56.730Z,18.33
2022-08-10T02:36:31.421Z,18.27
2022-08-10T02:39:05.751Z,18.27
2022-08-10T02:45:00.911Z,18.27
2022-08-10T02:45:24.708Z,18.22
2022-08-10T02:47:51.363Z,18.21
2022-08-10T02:50:32.906Z,18.20
2022-08-10T02:53:54.341Z,18.20
2022-08-10T02:56:14.865Z,18.15
2022-08-10T02:58:53.673Z,18.11
2022-08-10T03:01:29.592Z,18.07
2022-08-10T03:04:04.613Z,18.01
2022-08-10T03:06:43.670Z,17.99
2022-08-10T03:09:17.065Z,17.91
2022-08-10T03:12:36.685Z,17.83
2022-08-10T03:14:44.169Z,17.79
2022-08-10T03:17:16.909Z,17.77
2022-08-10T03:20:35.413Z,17.80
2022-08-10T03:22:41.743Z,17.70
2022-08-10T03:25:13.972Z,17.60
2022-08-10T03:27:46.238Z,17.62
2022-08-10T03:30:28.562Z,17.64
2022-08-10T03:33:05.334Z,17.62
2022-08-10T03:35:36.952Z,17.61
2022-08-10T03:38:08.461Z,17.64
2022-08-10T03:40:45.132Z,17.64
2022-08-10T03:43:18.198Z,17.64
2022-08-10T03:45:58.516Z,17.63
2022-08-10T03:48:33.298Z,17.63
2022-08-10T03:51:21.778Z,17.63
2022-08-10T03:54:05.128Z,17.62
2022-08-10T03:56:39.945Z,17.59
2022-08-10T03:59:12.691Z,17.54
2022-08-10T04:02:43.557Z,17.53
2022-08-10T04:04:36.965Z,17.47
2022-08-10T04:07:08.635Z,17.42
2022-08-10T04:09:55.074Z,17.45
2022-08-10T04:12:27.840Z,17.52
2022-08-10T04:14:59.366Z,17.55
2022-08-10T04:18:03.940Z,17.47
2022-08-10T04:20:44.923Z,17.33
2022-08-10T04:23:19.786Z,17.26
2022-08-10T04:25:52.472Z,17.31
2022-08-10T04:28:24.413Z,17.36
2022-08-10T04:30:59.954Z,17.40
2022-08-10T04:33:33.014Z,17.44
2022-08-10T04:36:05.528Z,17.43
2022-08-10T04:38:37.275Z,17.39
2022-08-10T04:41:09.241Z,17.48
2022-08-10T04:43:40.751Z,17.48
2022-08-10T04:46:42.966Z,17.61
2022-08-10T04:49:04.754Z,17.80
2022-08-10T04:51:36.355Z,17.98
2022-08-10T04:54:15.465Z,18.13
2022-08-10T04:56:47.354Z,18.17
2022-08-10T04:59:18.969Z,18.28
2022-08-10T05:02:29.092Z,18.31
2022-08-10T05:04:49.156Z,18.36
2022-08-10T05:07:23.740Z,18.51
2022-08-10T05:10:03.661Z,18.69
2022-08-10T05:12:38.755Z,18.68
2022-08-10T05:15:12.020Z,18.79
2022-08-10T05:18:06.845Z,19.06
2022-08-10T05:20:35.342Z,19.34
2022-08-10T05:23:07.488Z,19.57
2022-08-10T05:25:38.992Z,19.80
2022-08-10T05:28:10.560Z,20.02
2022-08-10T05:30:42.060Z,20.29
2022-08-10T05:33:13.793Z,20.49
2022-08-10T05:35:57.417Z,20.61
2022-08-10T05:38:30.260Z,20.87
2022-08-10T05:41:02.539Z,21.16
2022-08-10T05:43:34.262Z,21.41
2022-08-10T05:46:19.636Z,21.57
2022-08-10T05:48:56.852Z,21.82
2022-08-10T05:51:31.371Z,22.04
2022-08-10T05:54:06.500Z,22.17
2022-08-10T05:56:57.160Z,22.25
2022-08-10T06:00:30.734Z,22.39
2022-08-10T06:02:35.060Z,22.70
2022-08-10T06:05:16.872Z,23.06
2022-08-10T06:07:54.865Z,23.30
2022-08-10T06:10:32.527Z,23.53
2022-08-10T06:13:29.987Z,23.77
2022-08-10T06:16:10.581Z,23.91
2022-08-10T06:18:42.695Z,24.00
2022-08-10T06:21:20.593Z,24.23
2022-08-10T06:23:52.892Z,24.41
2022-08-10T06:26:24.440Z,24.51
2022-08-10T06:29:02.727Z,24.71
2022-08-10T06:31:48.846Z,25.02
2022-08-10T06:34:24.327Z,25.38
2022-08-10T06:36:57.650Z,25.65
2022-08-10T06:39:33.968Z,25.97
2022-08-10T06:42:16.051Z,25.93
2022-08-10T06:44:55.099Z,25.81
2022-08-10T06:47:29.657Z,26.00
2022-08-10T06:50:09.223Z,25.87
2022-08-10T06:52:43.610Z,26.29
2022-08-10T06:55:16.743Z,26.55
2022-08-10T06:57:59.848Z,26.68
2022-08-10T07:00:34.331Z,27.04
2022-08-10T07:03:10.960Z,27.26
2022-08-10T07:05:46.839Z,27.29
2022-08-10T07:08:24.723Z,27.34
2022-08-10T07:10:56.426Z,27.73
2022-08-10T07:14:14.218Z,28.20
2022-08-10T07:16:28.275Z,28.39
2022-08-10T07:19:00.444Z,28.41
2022-08-10T07:21:32.620Z,28.67
2022-08-10T07:24:05.072Z,28.84
2022-08-10T07:26:43.112Z,28.90
2022-08-10T07:29:53.068Z,28.86
2022-08-10T07:32:08.334Z,28.90
2022-08-10T07:34:40.848Z,28.88
2022-08-10T07:37:13.711Z,29.23
2022-08-10T07:40:02.749Z,29.28
2022-08-10T07:42:45.502Z,28.72
2022-08-10T07:45:17.552Z,28.44
2022-08-10T07:47:55.197Z,28.82
2022-08-10T07:50:27.529Z,28.99
2022-08-10T07:53:07.165Z,29.37
2022-08-10T07:56:07.260Z,29.64
2022-08-10T07:58:58.076Z,29.52
2022-08-10T08:01:32.000Z,29.23
2022-08-10T08:04:05.782Z,29.40
2022-08-10T08:06:44.294Z,29.22
2022-08-10T08:09:15.909Z,28.78
2022-08-10T08:11:47.844Z,28.18
2022-08-10T08:14:21.929Z,28.10
2022-08-10T08:16:55.381Z,28.25
2022-08-10T08:19:37.851Z,28.47
2022-08-10T08:24:10.786Z,28.45
2022-08-10T08:25:14.572Z,28.44
2022-08-10T08:27:52.635Z,28.27
2022-08-10T08:30:26.970Z,28.36
2022-08-10T08:33:00.776Z,28.51
2022-08-10T08:35:33.081Z,28.87
2022-08-10T08:38:31.123Z,29.42
2022-08-10T08:41:03.599Z,29.82
2022-08-10T08:43:47.579Z,29.91
2022-08-10T08:46:33.191Z,29.55
2022-08-10T08:49:41.451Z,29.65
2022-08-10T08:52:23.649Z,29.73
2022-08-10T08:55:03.275Z,29.78
2022-08-10T08:57:51.180Z,30.54
2022-08-10T09:00:35.137Z,30.76
2022-08-10T09:03:26.220Z,30.48
2022-08-10T09:06:18.426Z,30.14
2022-08-10T09:08:58.765Z,30.06
2022-08-10T09:11:48.820Z,30.22
2022-08-10T09:14:26.137Z,30.59
2022-08-10T09:17:07.794Z,30.69
2022-08-10T09:19:39.335Z,30.57
2022-08-10T09:22:24.083Z,30.29
2022-08-10T09:24:58.941Z,30.61
2022-08-10T09:27:36.320Z,30.59
2022-08-10T09:30:08.432Z,30.32
2022-08-10T09:36:14.575Z,30.34
2022-08-10T09:36:23.358Z,30.38
2022-08-10T09:39:02.386Z,29.89
2022-08-10T09:41:39.821Z,29.64
2022-08-10T09:44:14.207Z,29.55
2022-08-10T09:46:54.638Z,29.06
2022-08-10T09:49:53.771Z,29.27
2022-08-10T09:52:23.649Z,29.66
2022-08-10T09:55:06.560Z,29.36
2022-08-10T09:57:57.632Z,29.28
2022-08-10T10:00:38.001Z,29.33
2022-08-10T10:03:17.269Z,29.86
2022-08-10T10:05:55.621Z,29.97
2022-08-10T10:08:42.928Z,30.20
2022-08-10T10:11:29.158Z,30.62
2022-08-10T10:14:13.790Z,30.98
2022-08-10T10:16:51.114Z,30.59
2022-08-10T10:19:40.783Z,30.05
2022-08-10T10:22:14.597Z,29.91
2022-08-10T10:24:50.836Z,29.91
2022-08-10T10:27:25.736Z,30.09
2022-08-10T10:30:11.062Z,30.43
2022-08-10T10:32:42.872Z,30.62
2022-08-10T10:35:17.549Z,30.34
2022-08-10T10:38:01.512Z,30.42
2022-08-10T10:40:39.859Z,30.50
2022-08-10T10:43:21.835Z,30.12
2022-08-10T10:46:01.490Z,30.36
2022-08-10T10:48:39.997Z,30.52
2022-08-10T10:51:20.642Z,30.68
2022-08-10T10:54:03.023Z,30.84
2022-08-10T10:56:53.015Z,30.96
2022-08-10T10:59:55.565Z,30.99
2022-08-10T11:02:38.896Z,31.18
2022-08-10T11:05:13.455Z,31.16
2022-08-10T11:07:53.422Z,30.99
2022-08-10T11:10:44.911Z,31.10
2022-08-10T11:14:26.037Z,31.07
2022-08-10T11:16:33.221Z,31.06
2022-08-10T11:19:07.423Z,30.76
2022-08-10T11:21:57.470Z,30.79
2022-08-10T11:24:42.692Z,31.11
2022-08-10T11:27:26.861Z,31.06
2022-08-10T11:30:01.364Z,31.18
2022-08-10T11:32:51.709Z,31.29
2022-08-10T11:35:31.616Z,31.26
2022-08-10T11:38:31.040Z,31.23
2022-08-10T11:42:07.691Z,30.92
2022-08-10T11:44:29.544Z,30.39
2022-08-10T11:47:11.045Z,30.29
2022-08-10T11:50:05.825Z,30.26
2022-08-10T11:52:46.073Z,30.44
2022-08-10T11:55:19.077Z,30.41
2022-08-10T11:57:56.111Z,30.44
2022-08-10T12:00:32.411Z,30.07
2022-08-10T12:03:07.568Z,30.06
2022-08-10T12:05:52.122Z,29.90
2022-08-10T12:10:07.578Z,29.76
2022-08-10T12:11:25.329Z,29.58
2022-08-10T12:14:22.025Z,29.27
2022-08-10T12:17:05.417Z,29.03
2022-08-10T12:19:59.708Z,28.92
2022-08-10T12:22:38.775Z,28.99
2022-08-10T12:25:11.874Z,29.18
2022-08-10T12:28:14.097Z,29.42
2022-08-10T12:30:58.172Z,29.33
2022-08-10T12:34:02.060Z,29.58
2022-08-10T12:36:28.008Z,29.77
2022-08-10T12:39:06.711Z,29.79
2022-08-10T12:41:48.211Z,29.69
2022-08-10T12:44:41.495Z,29.46
2022-08-10T12:47:32.713Z,29.02
2022-08-10T12:50:29.984Z,28.96
2022-08-10T12:53:20.049Z,28.76
2022-08-10T12:55:51.843Z,28.67
2022-08-10T12:59:00.482Z,28.62
2022-08-10T13:01:17.466Z,28.59
2022-08-10T13:04:21.203Z,28.46
2022-08-10T13:06:46.351Z,28.43
2022-08-10T13:09:25.108Z,28.37
2022-08-10T13:12:38.911Z,28.07
2022-08-10T13:15:31.050Z,27.93
2022-08-10T13:18:18.792Z,27.86
2022-08-10T13:20:52.256Z,27.79
2022-08-10T13:23:26.832Z,27.50
2022-08-10T13:26:00.872Z,27.36
2022-08-10T13:28:45.574Z,27.40
2022-08-10T13:31:18.688Z,27.51
2022-08-10T13:34:40.216Z,27.50
2022-08-10T13:36:47.689Z,27.64
2022-08-10T13:39:23.694Z,27.54
2022-08-10T13:41:55.870Z,27.62
2022-08-10T13:44:29.924Z,27.94
2022-08-10T13:47:01.442Z,28.23
2022-08-10T13:49:55.172Z,28.49
2022-08-10T13:52:28.107Z,28.46
2022-08-10T13:55:00.820Z,28.32
2022-08-10T13:57:34.423Z,28.52
2022-08-10T14:00:35.980Z,28.75
2022-08-10T14:03:15.900Z,28.80
2022-08-10T14:05:54.496Z,29.15
2022-08-10T14:08:30.292Z,29.14
2022-08-10T14:11:11.003Z,29.24
2022-08-10T14:13:45.862Z,29.23
2022-08-10T14:16:17.542Z,29.08
2022-08-10T14:18:51.199Z,28.86
2022-08-10T14:21:22.975Z,28.65
2022-08-10T14:23:54.541Z,28.31
2022-08-10T14:26:28.585Z,28.02
2022-08-10T14:29:05.690Z,27.94
2022-08-10T14:31:39.133Z,27.78
2022-08-10T14:36:16.444Z,27.99
2022-08-10T14:37:30.155Z,28.20
2022-08-10T14:40:10.398Z,28.37
2022-08-10T14:42:46.489Z,28.30
2022-08-10T14:45:20.185Z,28.06
2022-08-10T14:47:59.491Z,28.03
2022-08-10T14:50:33.813Z,28.14
2022-08-10T14:53:09.572Z,28.12
2022-08-10T14:55:59.318Z,28.17
2022-08-10T14:58:35.565Z,28.21
2022-08-10T15:01:10.509Z,28.16
2022-08-10T15:04:00.904Z,28.20
2022-08-10T15:06:39.280Z,28.26
2022-08-10T15:09:19.646Z,28.17
2022-08-10T15:12:13.991Z,28.16
2022-08-10T15:14:48.513Z,28.22
2022-08-10T15:17:26.276Z,28.19
2022-08-10T15:20:13.528Z,28.17
2022-08-10T15:22:50.361Z,28.10
2022-08-10T15:25:24.330Z,28.02
2022-08-10T15:28:05.750Z,28.06
2022-08-10T15:30:40.307Z,28.19
2022-08-10T15:34:00.262Z,28.29
2022-08-10T15:36:37.249Z,28.27
2022-08-10T15:39:16.728Z,28.11
2022-08-10T15:42:08.478Z,27.87
2022-08-10T15:44:41.688Z,27.70
2022-08-10T15:47:18.982Z,27.58
2022-08-10T15:49:56.609Z,27.65
2022-08-10T15:52:59.869Z,27.69
2022-08-10T15:55:42.726Z,27.55
2022-08-10T15:58:40.766Z,27.53
2022-08-10T16:02:13.290Z,27.62
2022-08-10T16:04:12.176Z,27.63
2022-08-10T16:06:46.761Z,27.77
2022-08-10T16:10:23.920Z,27.81
2022-08-10T16:12:14.705Z,27.83
2022-08-10T16:14:47.974Z,27.78
2022-08-10T16:17:20.690Z,27.67
2022-08-10T16:19:53.396Z,27.65
2022-08-10T16:22:36.189Z,27.57
2022-08-10T16:25:15.637Z,27.47
2022-08-10T16:27:47.855Z,27.44
2022-08-10T16:30:24.313Z,27.42
2022-08-10T16:32:57.967Z,27.38
2022-08-10T16:35:32.518Z,27.40
2022-08-10T16:38:05.253Z,27.32
2022-08-10T16:40:37.628Z,27.28
2022-08-10T16:43:10.664Z,27.07
2022-08-10T16:45:45.804Z,26.98
2022-08-10T16:48:49.900Z,26.88
2022-08-10T16:51:17.554Z,26.84
2022-08-10T16:53:54.315Z,26.87
2022-08-10T16:56:31.906Z,26.85
2022-08-10T16:59:03.665Z,26.88
2022-08-10T17:01:39.744Z,26.82
2022-08-10T17:04:11.696Z,26.76
2022-08-10T17:06:51.405Z,26.78
2022-08-10T17:09:31.840Z,26.79
2022-08-10T17:12:05.956Z,26.74
2022-08-10T17:14:38.910Z,26.66
2022-08-10T17:17:17.841Z,26.62
2022-08-10T17:19:53.654Z,26.56
2022-08-10T17:22:27.753Z,26.50
2022-08-10T17:25:04.047Z,26.47
2022-08-10T17:28:15.073Z,26.44
2022-08-10T17:30:34.343Z,26.35
2022-08-10T17:33:11.664Z,26.28
2022-08-10T17:35:46.589Z,26.26
2022-08-10T17:38:20.898Z,26.27
2022-08-10T17:41:04.138Z,26.20
2022-08-10T17:43:46.251Z,26.14
2022-08-10T17:46:32.179Z,26.11
2022-08-10T17:49:11.966Z,26.09
2022-08-10T17:51:48.335Z,25.99
2022-08-10T17:54:28.118Z,25.92
2022-08-10T17:57:01.872Z,25.91
2022-08-10T17:59:33.894Z,25.88
2022-08-10T18:02:10.558Z,25.79
2022-08-10T18:04:47.933Z,25.77
2022-08-10T18:07:28.203Z,25.71
2022-08-10T18:10:00.815Z,25.67
2022-08-10T18:12:39.389Z,25.60
2022-08-10T18:15:13.568Z,25.55
2022-08-10T18:17:51.095Z,25.53
2022-08-10T18:20:28.239Z,25.47
2022-08-10T18:23:01.116Z,25.47
2022-08-10T18:25:40.354Z,25.39
2022-08-10T18:28:17.737Z,25.29
2022-08-10T18:30:50.415Z,25.25
2022-08-10T18:33:25.478Z,25.22
2022-08-10T18:36:03.531Z,25.17
2022-08-10T18:38:36.120Z,25.12
2022-08-10T18:41:09.093Z,25.04
2022-08-10T18:44:06.029Z,24.96
2022-08-10T18:46:40.044Z,24.90
2022-08-10T18:49:25.843Z,24.81
2022-08-10T18:52:01.884Z,24.73
2022-08-10T18:54:44.743Z,24.65
2022-08-10T18:57:23.547Z,24.56
2022-08-10T19:00:03.733Z,24.54
2022-08-10T19:02:40.029Z,24.53
2022-08-10T19:05:31.447Z,24.47
2022-08-10T19:08:03.569Z,24.43
2022-08-10T19:10:51.014Z,24.37
2022-08-10T19:13:32.440Z,24.35
2022-08-10T19:16:22.766Z,24.31
2022-08-10T19:19:21.695Z,24.23
2022-08-10T19:21:58.150Z,24.15
2022-08-10T19:24:38.908Z,24.05
2022-08-10T19:27:21.272Z,24.01
2022-08-10T19:30:11.327Z,23.95
2022-08-10T19:33:13.893Z,23.88
2022-08-10T19:36:05.494Z,23.80
2022-08-10T19:38:54.012Z,23.72
2022-08-10T19:41:32.758Z,23.65
2022-08-10T19:44:27.552Z,23.65
2022-08-10T19:47:02.040Z,23.67
2022-08-10T19:49:42.440Z,23.64
2022-08-10T19:52:25.875Z,23.62
2022-08-10T19:55:03.202Z,23.60
2022-08-10T19:57:37.480Z,23.58
2022-08-10T20:00:19.736Z,23.51
2022-08-10T20:03:02.920Z,23.45
2022-08-10T20:05:42.130Z,23.39
2022-08-10T20:08:57.040Z,23.38
2022-08-10T20:11:44.299Z,23.31
2022-08-10T20:14:25.883Z,23.27
2022-08-10T20:17:03.902Z,23.25
2022-08-10T20:19:55.039Z,23.24
2022-08-10T20:22:29.633Z,23.18
2022-08-10T20:25:06.806Z,23.14
2022-08-10T20:27:59.158Z,23.11
2022-08-10T20:30:36.611Z,23.09
2022-08-10T20:33:17.988Z,23.07
2022-08-10T20:35:56.122Z,23.00
2022-08-10T20:38:33.153Z,22.95
2022-08-10T20:41:19.717Z,22.89
2022-08-10T20:44:29.216Z,22.77
2022-08-10T20:47:00.684Z,22.75
2022-08-10T20:49:34.959Z,22.73
2022-08-10T20:52:09.212Z,22.60
2022-08-10T20:54:47.076Z,22.60
2022-08-10T20:57:55.921Z,22.57
2022-08-10T21:00:30.745Z,22.49
2022-08-10T21:03:20.713Z,22.47
2022-08-10T21:06:06.333Z,22.46
2022-08-10T21:09:02.123Z,22.44
2022-08-10T21:11:52.851Z,22.43
2022-08-10T21:14:37.447Z,22.42
2022-08-10T21:17:16.000Z,22.42
2022-08-10T21:20:00.811Z,22.37
2022-08-10T21:22:39.527Z,22.35
2022-08-10T21:25:15.620Z,22.31
2022-08-10T21:27:55.328Z,22.27
2022-08-10T21:30:42.136Z,22.25
2022-08-10T21:33:21.294Z,22.20
2022-08-10T21:35:58.341Z,22.15
2022-08-10T21:38:46.860Z,22.09
2022-08-10T21:41:57.202Z,22.08
2022-08-10T21:45:07.619Z,22.02
2022-08-10T21:48:04.957Z,22.01
2022-08-10T21:51:16.565Z,22.00
2022-08-10T21:54:35.617Z,21.97
2022-08-10T21:57:43.563Z,21.95
2022-08-10T22:00:49.474Z,21.91
2022-08-10T22:03:40.551Z,21.85
2022-08-10T22:06:32.834Z,21.82
2022-08-10T22:09:33.852Z,21.79
2022-08-10T22:12:34.229Z,21.77
2022-08-10T22:16:09.666Z,21.72
2022-08-10T22:19:01.469Z,21.64
2022-08-10T22:22:04.931Z,21.63
2022-08-10T22:25:16.361Z,21.60
2022-08-10T22:28:17.613Z,21.57
2022-08-10T22:31:31.602Z,21.52
2022-08-10T22:34:41.188Z,21.43
2022-08-10T22:37:31.502Z,21.36
2022-08-10T22:40:21.724Z,21.31
2022-08-10T22:43:13.146Z,21.26
2022-08-10T22:46:06.480Z,21.20
2022-08-10T22:49:00.510Z,21.13
2022-08-10T22:51:38.476Z,21.09
2022-08-10T22:54:35.042Z,21.04
2022-08-10T22:57:30.237Z,20.98
2022-08-10T23:00:14.375Z,20.93
2022-08-10T23:02:54.845Z,20.88
2022-08-10T23:05:34.425Z,20.80
2022-08-10T23:08:29.492Z,20.74
2022-08-10T23:11:04.197Z,20.68
2022-08-10T23:13:38.843Z,20.65
2022-08-10T23:16:35.948Z,20.59
2022-08-10T23:19:14.458Z,20.55
2022-08-10T23:22:03.957Z,20.51
2022-08-10T23:24:39.743Z,20.47
2022-08-10T23:27:37.442Z,20.40
2022-08-10T23:30:10.582Z,20.33
2022-08-10T23:32:51.448Z,20.27
2022-08-10T23:36:31.244Z,20.24
2022-08-10T23:38:23.884Z,20.22
2022-08-10T23:40:56.619Z,20.20
2022-08-10T23:43:46.785Z,20.15
2022-08-10T23:46:24.356Z,20.14
2022-08-10T23:48:58.231Z,20.12
2022-08-10T23:51:54.570Z,20.07
2022-08-10T23:54:27.141Z,20.03
2022-08-10T23:57:00.884Z,19.98
2022-08-10T23:59:34.351Z,19.93
